TimeCEST,TemperatureF,Dew PointF,Humidity,Sea Level PressureIn,VisibilityMPH,Wind Direction,Wind SpeedMPH,Gust SpeedMPH,PrecipitationIn,Events,Conditions,WindDirDegrees,DateUTC
2:00 AM,75,63,58,29.97,,Calm,Calm,,,,,,2013-08-19 00:00:00
5:00 AM,75.2,55.4,50,29.95,-9999.0,Variable,1.2,-,N/A,,Clear,0,2013-08-19 03:00:00
5:30 AM,73.4,57.2,57,29.95,-9999.0,Variable,2.3,-,N/A,,Clear,0,2013-08-19 03:30:00
6:00 AM,73.4,62.6,69,29.95,-9999.0,North,6.9,-,N/A,,Clear,10,2013-08-19 04:00:00
6:30 AM,73.4,64.4,73,29.95,-9999.0,Variable,2.3,-,N/A,,Clear,0,2013-08-19 04:30:00
7:00 AM,71.6,64.4,78,29.95,-9999.0,Variable,1.2,-,N/A,,Clear,0,2013-08-19 05:00:00
7:30 AM,69.8,62.6,78,29.95,-9999.0,South,3.5,-,N/A,,Clear,190,2013-08-19 05:30:00
8:00 AM,70,63,72,29.98,31,Calm,Calm,,,,,,2013-08-19 06:00:00
8:00 AM,69.8,62.6,78,29.95,-9999.0,SSW,3.5,-,N/A,,Clear,200,2013-08-19 06:00:00
8:30 AM,69.8,62.6,78,29.95,-9999.0,SSW,3.5,-,N/A,,Clear,200,2013-08-19 06:30:00
9:00 AM,69.8,62.6,78,29.95,-9999.0,SSW,3.5,-,N/A,,Clear,200,2013-08-19 07:00:00
9:30 AM,69.8,62.6,78,29.95,-9999.0,SSW,3.5,-,N/A,,Clear,200,2013-08-19 07:30:00
10:00 AM,69.8,62.6,78,29.95,-9999.0,SSW,3.5,-,N/A,,Clear,200,2013-08-19 08:00:00
10:30 AM,69.8,62.6,78,29.95,-9999.0,SSW,3.5,-,N/A,,Clear,200,2013-08-19 08:30:00
11:00 AM,69.8,62.6,78,29.95,-9999.0,SSW,3.5,-,N/A,,Clear,200,2013-08-19 09:00:00
11:30 AM,69.8,62.6,78,29.95,-9999.0,SSW,3.5,-,N/A,,Clear,200,2013-08-19 09:30:00
12:00 PM,95.0,57.2,28,30.01,-9999.0,Variable,1.2,-,N/A,,Clear,0,2013-08-19 10:00:00
12:30 PM,96.8,53.6,23,30.01,-9999.0,Variable,1.2,-,N/A,,Clear,0,2013-08-19 10:30:00
1:00 PM,98.6,48.2,18,30.01,-9999.0,East,3.5,-,N/A,,Clear,90,2013-08-19 11:00:00
1:30 PM,100.4,50.0,18,30.01,-9999.0,East,9.2,-,N/A,,Clear,100,2013-08-19 11:30:00
2:00 PM,102,52,11,29.99,25,ESE,8.1,,,,,120,2013-08-19 12:00:00
2:00 PM,102.2,50.0,17,29.98,-9999.0,ESE,6.9,-,N/A,,Clear,120,2013-08-19 12:00:00
2:30 PM,102.2,51.8,18,29.98,-9999.0,Variable,2.3,-,N/A,,Clear,0,2013-08-19 12:30:00
3:00 PM,104.0,53.6,19,29.98,-9999.0,Variable,3.5,-,N/A,,Clear,0,2013-08-19 13:00:00
3:30 PM,104.0,50.0,16,29.98,-9999.0,Variable,2.3,-,N/A,,Clear,0,2013-08-19 13:30:00
4:00 PM,104.0,53.6,19,29.98,-9999.0,SW,9.2,-,N/A,,Clear,220,2013-08-19 14:00:00
4:30 PM,104.0,53.6,19,29.95,-9999.0,Variable,2.3,-,N/A,,Clear,0,2013-08-19 14:30:00
5:00 PM,104.0,51.8,17,29.95,-9999.0,Variable,1.2,-,N/A,,Clear,0,2013-08-19 15:00:00
5:30 PM,104.0,51.8,17,29.95,-9999.0,SW,10.4,-,N/A,,Clear,220,2013-08-19 15:30:00
6:00 PM,102.2,53.6,20,29.95,-9999.0,South,9.2,-,N/A,,Clear,180,2013-08-19 16:00:00
6:30 PM,100.4,53.6,21,29.95,-9999.0,SSE,8.1,-,N/A,,Clear,160,2013-08-19 16:30:00
7:00 PM,98.6,55.4,24,29.95,-9999.0,South,9.2,-,N/A,,Clear,170,2013-08-19 17:00:00
7:30 PM,96.8,55.4,25,29.95,-9999.0,SSE,8.1,-,N/A,,Clear,160,2013-08-19 17:30:00
8:00 PM,95.0,53.6,25,29.95,-9999.0,SSE,9.2,-,N/A,,Clear,160,2013-08-19 18:00:00
8:30 PM,93.2,55.4,28,29.95,-9999.0,South,5.8,-,N/A,,Clear,170,2013-08-19 18:30:00
9:00 PM,89.6,57.2,33,29.95,-9999.0,SSE,4.6,-,N/A,,Clear,160,2013-08-19 19:00:00
9:30 PM,86.0,60.8,43,29.98,-9999.0,South,4.6,-,N/A,,Clear,170,2013-08-19 19:30:00
10:00 PM,84.2,62.6,48,29.98,-9999.0,Variable,2.3,-,N/A,,Clear,0,2013-08-19 20:00:00
10:30 PM,82.4,62.6,51,29.98,-9999.0,Variable,2.3,-,N/A,,Clear,0,2013-08-19 20:30:00
11:00 PM,80.6,59.0,48,29.98,-9999.0,South,5.8,-,N/A,,Clear,170,2013-08-19 21:00:00